Time;durP1;ratioP1;P1;durP2;ratioP2;P2;SDS_P1;SDS_P2;PMS_P1;PMS_P2;Temp;Humidity;BMP_temperature;BMP_pressure;BME280_temperature;BME280_humidity;BME280_pressure;Samples;Min_cycle;Max_cycle;Signal;HPM_P1;HPM_P2
2024/01/01 00:02:40;;;;;;;12.00;6.28;;;8.80;99.90;;;;;;7369021;32;20172;-55
2024/01/01 00:06:41;;;;;;;15.07;5.90;;;8.90;99.90;;;;;;7366504;32;20155;-55
2024/01/01 00:10:44;;;;;;;10.45;4.97;;;8.80;99.90;;;;;;7362904;32;20485;-56
2024/01/01 00:14:46;;;;;;;15.07;5.30;;;8.80;99.90;;;;;;7358708;32;20108;-55
2024/01/01 00:18:47;;;;;;;13.05;4.93;;;8.90;99.90;;;;;;7360024;32;20125;-56
2024/01/01 00:22:49;;;;;;;14.23;5.72;;;8.80;99.90;;;;;;7366640;32;20616;-56
2024/01/01 00:26:51;;;;;;;12.75;4.60;;;8.80;99.90;;;;;;7359292;32;20131;-55
2024/01/01 00:30:53;;;;;;;9.80;4.30;;;8.70;99.90;;;;;;7360200;32;20123;-55
2024/01/01 00:34:55;;;;;;;11.98;4.68;;;8.70;99.90;;;;;;7362832;32;20134;-55
2024/01/01 00:38:57;;;;;;;15.05;4.93;;;8.60;99.90;;;;;;7367200;32;20255;-55
2024/01/01 00:42:59;;;;;;;10.32;4.35;;;8.70;99.90;;;;;;7362704;32;20139;-55
2024/01/01 00:47:00;;;;;;;13.77;4.57;;;8.70;99.90;;;;;;7350529;32;20238;-54
2024/01/01 00:51:02;;;;;;;7.70;3.37;;;8.70;99.90;;;;;;7357129;32;20231;-55
2024/01/01 00:55:05;;;;;;;9.32;3.58;;;8.70;99.90;;;;;;7369230;32;20202;-55
2024/01/01 00:59:07;;;;;;;15.63;3.55;;;8.60;99.90;;;;;;7354707;32;20199;-55
2024/01/01 01:03:08;;;;;;;12.57;3.55;;;8.70;99.90;;;;;;7370235;32;20163;-55
2024/01/01 01:07:10;;;;;;;17.42;3.67;;;8.70;99.90;;;;;;7366841;32;20617;-55
2024/01/01 01:11:12;;;;;;;8.70;2.47;;;8.70;99.90;;;;;;7368616;32;20284;-55
2024/01/01 01:15:14;;;;;;;11.98;2.75;;;8.70;99.90;;;;;;7359772;32;20217;-54
2024/01/01 01:19:15;;;;;;;7.85;1.85;;;8.70;99.90;;;;;;7362042;32;20130;-54
2024/01/01 01:23:17;;;;;;;7.35;1.95;;;8.70;99.90;;;;;;7371617;32;20738;-54
2024/01/01 01:27:19;;;;;;;9.50;2.15;;;8.60;99.90;;;;;;7360424;32;20243;-55
2024/01/01 01:31:22;;;;;;;10.73;1.73;;;8.70;99.90;;;;;;7361092;32;20570;-55
2024/01/01 01:35:24;;;;;;;6.07;1.70;;;8.70;99.90;;;;;;7366915;32;20136;-55
2024/01/01 01:39:26;;;;;;;9.40;1.67;;;8.70;99.90;;;;;;7362119;32;20314;-55
2024/01/01 01:43:27;;;;;;;7.80;1.70;;;8.70;99.90;;;;;;7363763;32;20119;-55
2024/01/01 01:47:29;;;;;;;13.43;2.62;;;8.70;99.90;;;;;;7358940;32;20218;-55
2024/01/01 01:51:31;;;;;;;6.15;1.80;;;8.70;99.90;;;;;;7367237;32;20131;-54
2024/01/01 01:55:33;;;;;;;6.55;1.00;;;8.70;99.90;;;;;;7368933;32;20593;-55
2024/01/01 01:59:35;;;;;;;10.65;1.30;;;8.60;99.90;;;;;;7362824;32;20198;-55
2024/01/01 02:03:37;;;;;;;9.38;1.60;;;8.60;99.90;;;;;;7358810;32;20231;-55
2024/01/01 02:07:40;;;;;;;9.38;2.10;;;8.60;99.90;;;;;;7361072;32;20269;-55
2024/01/01 02:11:43;;;;;;;8.18;1.20;;;8.40;99.90;;;;;;7362211;32;20195;-55
2024/01/01 02:15:45;;;;;;;8.73;1.50;;;8.20;99.90;;;;;;7365314;32;20198;-55
2024/01/01 02:19:47;;;;;;;10.27;1.35;;;8.00;99.90;;;;;;7362079;32;20163;-54
2024/01/01 02:23:48;;;;;;;7.90;1.00;;;7.50;99.90;;;;;;7359300;32;20099;-54
2024/01/01 02:27:50;;;;;;;3.90;0.80;;;7.10;99.90;;;;;;7352415;32;20186;-54
2024/01/01 02:31:52;;;;;;;6.65;1.23;;;6.90;99.90;;;;;;7357614;32;20118;-54
2024/01/01 02:35:53;;;;;;;6.18;1.12;;;6.80;99.90;;;;;;7366541;32;20648;-54
2024/01/01 02:39:55;;;;;;;8.07;1.27;;;6.60;99.90;;;;;;7362686;32;20828;-55
2024/01/01 02:43:57;;;;;;;6.72;0.98;;;6.50;99.90;;;;;;7362361;32;20688;-54
2024/01/01 02:47:59;;;;;;;6.15;1.42;;;6.50;99.90;;;;;;7364421;32;20548;-54
2024/01/01 02:52:01;;;;;;;9.02;1.35;;;6.40;99.90;;;;;;7363875;32;20115;-54
2024/01/01 02:56:03;;;;;;;7.80;1.45;;;6.40;99.90;;;;;;7368071;32;20123;-55
2024/01/01 03:00:09;;;;;;;8.13;1.42;;;6.40;99.90;;;;;;7365139;32;20214;-55
2024/01/01 03:04:11;;;;;;;11.00;1.60;;;6.40;99.90;;;;;;7362175;32;20209;-55
2024/01/01 03:08:13;;;;;;;11.25;1.80;;;6.50;99.90;;;;;;7359106;32;20118;-54
2024/01/01 03:12:15;;;;;;;11.60;1.95;;;6.40;99.90;;;;;;7353664;32;20184;-55
2024/01/01 03:16:19;;;;;;;9.88;1.80;;;6.50;99.90;;;;;;7362150;32;20111;-54
2024/01/01 03:20:23;;;;;;;9.45;1.67;;;6.50;99.90;;;;;;7359241;32;20664;-54
2024/01/01 03:24:25;;;;;;;12.75;1.75;;;6.60;99.90;;;;;;7350937;32;20250;-55
2024/01/01 03:28:27;;;;;;;12.25;1.92;;;6.60;99.90;;;;;;7363975;32;20209;-55
2024/01/01 03:32:29;;;;;;;11.20;1.62;;;6.60;99.90;;;;;;7368416;32;20133;-56
2024/01/01 03:36:30;;;;;;;11.38;1.77;;;6.60;99.90;;;;;;7365360;32;20103;-54
2024/01/01 03:40:32;;;;;;;9.82;2.12;;;6.60;99.90;;;;;;7368740;32;20259;-55
2024/01/01 03:44:34;;;;;;;11.77;1.70;;;6.70;99.90;;;;;;7369424;32;20186;-55
2024/01/01 03:48:36;;;;;;;16.48;2.10;;;6.70;99.90;;;;;;7362537;32;20103;-55
2024/01/01 03:52:38;;;;;;;12.27;2.15;;;6.80;99.90;;;;;;7365152;32;20099;-54
2024/01/01 03:56:40;;;;;;;16.10;2.03;;;6.80;99.90;;;;;;7361841;32;20225;-54
2024/01/01 04:00:42;;;;;;;12.02;2.37;;;6.90;99.90;;;;;;7365449;32;20171;-55
2024/01/01 04:04:44;;;;;;;16.42;2.28;;;6.80;99.90;;;;;;7364947;32;20603;-54
2024/01/01 04:08:46;;;;;;;12.65;1.70;;;6.80;99.90;;;;;;7360441;32;20133;-54
2024/01/01 04:12:48;;;;;;;20.08;2.92;;;6.90;99.90;;;;;;7366676;32;20277;-55
2024/01/01 04:16:49;;;;;;;16.15;2.22;;;7.00;99.90;;;;;;7365678;32;20573;-55
2024/01/01 04:20:53;;;;;;;9.45;1.40;;;7.00;99.90;;;;;;7338910;32;20207;-55
2024/01/01 04:24:54;;;;;;;10.55;2.15;;;7.00;99.90;;;;;;7362295;32;20128;-55
2024/01/01 04:28:56;;;;;;;12.98;1.70;;;7.00;99.90;;;;;;7364682;32;20130;-55
2024/01/01 04:32:58;;;;;;;16.33;1.55;;;7.10;99.90;;;;;;7358393;32;20142;-54
2024/01/01 04:37:01;;;;;;;16.27;2.03;;;7.20;99.90;;;;;;7359569;32;20502;-54
2024/01/01 04:41:04;;;;;;;16.77;2.17;;;7.20;99.90;;;;;;7361030;32;20126;-55
2024/01/01 04:45:06;;;;;;;12.63;1.50;;;7.20;99.90;;;;;;7366036;32;20203;-54
2024/01/01 04:49:08;;;;;;;16.08;2.25;;;7.20;99.90;;;;;;7359442;32;20445;-54
2024/01/01 04:53:10;;;;;;;15.68;1.60;;;7.30;99.90;;;;;;7363363;32;20513;-54
2024/01/01 04:57:12;;;;;;;13.80;2.25;;;7.30;99.90;;;;;;7363638;32;20223;-54
2024/01/01 05:01:13;;;;;;;9.30;1.85;;;7.30;99.90;;;;;;7363198;32;20131;-54
2024/01/01 05:05:15;;;;;;;10.80;1.83;;;7.40;99.90;;;;;;7361995;32;20153;-53
2024/01/01 05:09:17;;;;;;;13.88;2.10;;;7.40;99.90;;;;;;7357735;32;20141;-54
2024/01/01 05:13:19;;;;;;;21.08;2.05;;;7.50;99.90;;;;;;7358798;32;20262;-54
2024/01/01 05:17:21;;;;;;;9.27;1.75;;;7.50;99.90;;;;;;7363929;32;20150;-55
2024/01/01 05:21:23;;;;;;;10.48;1.60;;;7.50;99.90;;;;;;7357059;32;20174;-54
2024/01/01 05:25:25;;;;;;;11.12;1.55;;;7.50;99.90;;;;;;7362187;32;20222;-55
2024/01/01 05:29:26;;;;;;;16.77;2.45;;;7.60;99.90;;;;;;7357758;32;20207;-54
2024/01/01 05:33:28;;;;;;;11.23;1.90;;;7.60;99.90;;;;;;7368382;32;20103;-54
2024/01/01 05:37:30;;;;;;;14.25;2.35;;;7.60;99.90;;;;;;7364730;32;20115;-54
2024/01/01 05:41:32;;;;;;;8.10;1.55;;;7.60;99.90;;;;;;7360743;32;20233;-55
2024/01/01 05:45:34;;;;;;;13.07;1.92;;;7.60;99.90;;;;;;7361300;32;20118;-55
2024/01/01 05:49:35;;;;;;;15.13;1.73;;;7.70;99.90;;;;;;7357378;32;20126;-54
2024/01/01 05:53:37;;;;;;;14.00;1.65;;;7.70;99.90;;;;;;7359702;32;20172;-56
2024/01/01 05:57:39;;;;;;;13.07;1.23;;;7.70;99.90;;;;;;7354842;32;20107;-56
2024/01/01 06:01:41;;;;;;;11.93;1.52;;;7.70;99.90;;;;;;7364635;32;20114;-56
2024/01/01 06:05:43;;;;;;;10.23;2.37;;;7.80;99.90;;;;;;7369360;32;20158;-55
2024/01/01 06:09:45;;;;;;;10.18;1.62;;;7.70;99.90;;;;;;7362110;32;20498;-53
2024/01/01 06:13:46;;;;;;;15.95;2.22;;;7.80;99.90;;;;;;7361399;32;20130;-53
2024/01/01 06:17:48;;;;;;;6.97;1.17;;;7.80;99.90;;;;;;7362254;32;20459;-54
2024/01/01 06:21:50;;;;;;;12.25;1.50;;;7.80;99.90;;;;;;7363650;32;20146;-55
2024/01/01 06:25:52;;;;;;;12.23;1.60;;;7.80;99.90;;;;;;7358319;32;20141;-54
2024/01/01 06:29:54;;;;;;;7.35;1.40;;;7.80;99.90;;;;;;7352248;32;20121;-55
2024/01/01 06:33:56;;;;;;;6.62;1.17;;;7.80;99.90;;;;;;7369476;32;20552;-55
2024/01/01 06:37:59;;;;;;;11.25;2.00;;;7.90;99.90;;;;;;7344258;32;20111;-54
2024/01/01 06:42:01;;;;;;;10.25;1.83;;;7.80;99.90;;;;;;7356211;32;20107;-55
2024/01/01 06:46:04;;;;;;;11.65;1.60;;;7.80;99.90;;;;;;7362415;32;20102;-55
2024/01/01 06:50:06;;;;;;;13.62;1.40;;;7.60;99.90;;;;;;7359479;32;20107;-55
2024/01/01 06:54:08;;;;;;;11.77;1.60;;;7.40;99.90;;;;;;7357182;32;20555;-56
2024/01/01 06:58:10;;;;;;;10.82;1.80;;;7.30;99.90;;;;;;7363755;32;20103;-55
2024/01/01 07:02:12;;;;;;;10.60;1.58;;;7.20;99.90;;;;;;7359347;32;20217;-55
2024/01/01 07:06:14;;;;;;;9.98;1.45;;;7.10;99.90;;;;;;7367774;32;20187;-54
2024/01/01 07:10:16;;;;;;;5.10;1.17;;;7.10;99.90;;;;;;7351849;32;20778;-55
2024/01/01 07:14:17;;;;;;;11.82;1.70;;;7.10;99.90;;;;;;7356986;32;20107;-56
2024/01/01 07:18:20;;;;;;;9.43;1.60;;;7.20;99.90;;;;;;7363791;32;20221;-55
2024/01/01 07:22:22;;;;;;;7.65;1.23;;;7.20;99.90;;;;;;7361623;32;20609;-55
2024/01/01 07:26:24;;;;;;;8.88;1.37;;;7.20;99.90;;;;;;7361376;32;20179;-55
2024/01/01 07:30:27;;;;;;;9.20;1.45;;;7.30;99.90;;;;;;7356816;32;20131;-54
2024/01/01 07:34:29;;;;;;;11.45;1.20;;;7.20;99.90;;;;;;7363044;32;20139;-53
2024/01/01 07:38:30;;;;;;;10.60;1.20;;;7.20;99.90;;;;;;7356588;32;20125;-54
2024/01/01 07:42:32;;;;;;;8.07;1.08;;;7.20;99.90;;;;;;7356434;32;20202;-55
2024/01/01 07:46:34;;;;;;;9.02;1.48;;;7.30;99.90;;;;;;7355332;32;20184;-56
2024/01/01 07:50:36;;;;;;;7.85;1.55;;;7.20;99.90;;;;;;7357882;32;20139;-56
2024/01/01 07:54:39;;;;;;;9.43;1.25;;;7.20;99.90;;;;;;7360873;32;20126;-56
2024/01/01 07:58:41;;;;;;;8.07;1.00;;;7.20;99.90;;;;;;7355754;32;20128;-55
2024/01/01 08:02:43;;;;;;;8.25;1.60;;;7.20;99.90;;;;;;7365339;32;20860;-56
2024/01/01 08:06:45;;;;;;;6.10;1.55;;;7.20;99.90;;;;;;7361313;32;20107;-55
2024/01/01 08:10:47;;;;;;;5.70;1.05;;;7.20;99.90;;;;;;7355328;32;20172;-56
2024/01/01 08:14:48;;;;;;;4.75;1.05;;;7.20;99.90;;;;;;7355976;32;20696;-55
2024/01/01 08:18:52;;;;;;;4.53;1.00;;;7.20;99.90;;;;;;7357775;32;20246;-57
2024/01/01 08:22:55;;;;;;;4.20;0.80;;;7.30;99.90;;;;;;7350446;32;20159;-56
2024/01/01 08:26:57;;;;;;;3.85;0.90;;;7.30;99.90;;;;;;7370765;32;20347;-57
2024/01/01 08:31:00;;;;;;;4.87;0.80;;;7.20;99.90;;;;;;7365586;32;20407;-57
2024/01/01 08:35:02;;;;;;;5.35;0.65;;;7.20;99.90;;;;;;7369462;32;20170;-55
2024/01/01 08:39:04;;;;;;;3.33;0.47;;;7.20;99.90;;;;;;7353637;32;20295;-56
2024/01/01 08:43:06;;;;;;;6.32;1.10;;;7.10;99.90;;;;;;7368245;32;20099;-56
2024/01/01 08:47:08;;;;;;;2.67;0.68;;;7.00;99.90;;;;;;7352173;32;20122;-55
2024/01/01 08:51:09;;;;;;;4.65;0.85;;;7.10;99.90;;;;;;7366473;32;20197;-57
2024/01/01 08:55:11;;;;;;;5.22;0.77;;;7.10;99.90;;;;;;7363544;32;20321;-56
2024/01/01 08:59:15;;;;;;;7.87;0.70;;;7.10;99.90;;;;;;7366374;32;20233;-55
2024/01/01 09:03:17;;;;;;;7.37;1.00;;;7.10;99.90;;;;;;7372692;32;20174;-55
2024/01/01 09:07:20;;;;;;;4.53;0.90;;;7.10;99.90;;;;;;7367469;32;20196;-55
2024/01/01 09:11:22;;;;;;;5.10;0.80;;;7.20;99.90;;;;;;7365243;32;20224;-56
2024/01/01 09:15:24;;;;;;;4.80;0.75;;;7.20;99.90;;;;;;7365198;32;20222;-56
2024/01/01 09:19:25;;;;;;;3.45;0.70;;;7.10;99.90;;;;;;7362526;32;20130;-55
2024/01/01 09:23:27;;;;;;;5.18;0.80;;;7.20;99.90;;;;;;7371246;32;20123;-56
2024/01/01 09:27:29;;;;;;;5.95;0.90;;;7.20;99.90;;;;;;7357737;32;20532;-56
2024/01/01 09:31:31;;;;;;;5.10;1.08;;;7.20;99.90;;;;;;7358433;32;20129;-56
2024/01/01 09:35:33;;;;;;;5.10;1.05;;;7.10;99.90;;;;;;7366863;32;20515;-55
2024/01/01 09:39:35;;;;;;;4.53;0.90;;;7.20;99.90;;;;;;7361998;32;20199;-56
2024/01/01 09:43:38;;;;;;;7.78;1.12;;;7.30;99.90;;;;;;7357750;32;20106;-57
2024/01/01 09:47:41;;;;;;;4.55;0.90;;;7.40;99.90;;;;;;7364409;32;20194;-56
2024/01/01 09:51:43;;;;;;;5.93;1.42;;;7.40;99.90;;;;;;7362613;32;20528;-56
2024/01/01 09:55:52;;;;;;;6.25;1.35;;;7.40;99.90;;;;;;7363347;32;20167;-57
2024/01/01 09:59:55;;;;;;;6.62;1.30;;;7.50;99.90;;;;;;7358513;32;20099;-57
2024/01/01 10:04:03;;;;;;;7.40;1.30;;;7.60;99.90;;;;;;7365557;32;20164;-57
2024/01/01 10:08:10;;;;;;;7.18;1.17;;;7.60;99.90;;;;;;7364209;32;20673;-57
2024/01/01 10:12:12;;;;;;;6.53;1.10;;;7.60;99.90;;;;;;7356129;32;20269;-54
2024/01/01 10:16:31;;;;;;;6.50;0.90;;;7.60;99.90;;;;;;7360389;32;20095;-55
2024/01/01 10:20:33;;;;;;;9.50;1.70;;;7.60;99.90;;;;;;7362161;32;20270;-56
2024/01/01 10:24:35;;;;;;;5.32;0.90;;;7.60;99.90;;;;;;7357389;32;20234;-55
2024/01/01 10:28:37;;;;;;;6.47;1.27;;;7.60;99.90;;;;;;7354742;32;20693;-56
2024/01/01 10:32:42;;;;;;;6.55;1.02;;;7.60;99.90;;;;;;7364033;32;20475;-55
2024/01/01 10:36:44;;;;;;;4.10;1.08;;;7.70;99.90;;;;;;7368661;32;20123;-64
2024/01/01 10:40:47;;;;;;;9.35;1.30;;;7.80;99.90;;;;;;7357257;32;20210;-63
2024/01/01 10:44:49;;;;;;;8.15;1.37;;;8.00;99.90;;;;;;7358054;32;20111;-63
2024/01/01 10:48:52;;;;;;;6.12;1.00;;;8.40;99.90;;;;;;7355913;32;20195;-55
2024/01/01 10:53:11;;;;;;;7.90;1.20;;;8.40;99.90;;;;;;7361788;32;20234;-55
2024/01/01 10:57:28;;;;;;;5.85;1.15;;;8.20;99.90;;;;;;7357482;32;20590;-56
2024/01/01 11:01:31;;;;;;;6.97;1.23;;;8.00;99.90;;;;;;7362350;32;20514;-56
2024/01/01 11:05:34;;;;;;;5.00;1.17;;;8.00;99.90;;;;;;7348797;32;20220;-56
2024/01/01 11:09:36;;;;;;;8.70;1.08;;;7.90;99.90;;;;;;7362775;32;20123;-59
2024/01/01 11:13:38;;;;;;;7.47;1.30;;;7.90;99.90;;;;;;7359294;32;20172;-56
2024/01/01 11:17:40;;;;;;;7.03;1.10;;;8.00;99.90;;;;;;7359790;32;20158;-57
2024/01/01 11:21:42;;;;;;;7.53;1.40;;;8.00;99.90;;;;;;7362522;32;20099;-55
2024/01/01 11:25:43;;;;;;;7.55;1.35;;;8.00;99.90;;;;;;7356910;32;20205;-56
2024/01/01 11:29:45;;;;;;;9.10;0.88;;;8.10;99.90;;;;;;7355549;32;20158;-55
2024/01/01 11:34:05;;;;;;;6.30;1.25;;;8.20;99.90;;;;;;7353816;32;20133;-56
2024/01/01 11:38:22;;;;;;;5.72;1.08;;;8.30;99.90;;;;;;7360261;32;20188;-57
2024/01/01 11:42:23;;;;;;;10.52;1.30;;;8.30;99.90;;;;;;7355410;32;20248;-56
2024/01/01 11:46:27;;;;;;;10.35;1.40;;;8.50;99.90;;;;;;7365823;32;20156;-56
2024/01/01 11:50:30;;;;;;;6.32;1.23;;;8.50;99.90;;;;;;7361405;32;20417;-56
2024/01/01 11:54:32;;;;;;;6.35;1.17;;;8.50;99.90;;;;;;7366765;32;20221;-55
2024/01/01 11:58:34;;;;;;;11.00;1.30;;;8.70;99.90;;;;;;7368909;32;20262;-58
2024/01/01 12:02:36;;;;;;;5.95;1.10;;;8.90;99.90;;;;;;7365213;32;20145;-54
2024/01/01 12:06:38;;;;;;;8.07;1.27;;;8.90;99.90;;;;;;7363443;32;20171;-56
2024/01/01 12:10:40;;;;;;;6.32;1.05;;;8.80;99.90;;;;;;7365523;32;20169;-55
2024/01/01 12:14:42;;;;;;;6.57;1.10;;;8.50;99.90;;;;;;7354972;32;20130;-56
2024/01/01 12:18:44;;;;;;;11.38;1.70;;;8.40;99.90;;;;;;7355593;32;20216;-55
2024/01/01 12:22:48;;;;;;;11.80;1.60;;;8.30;99.90;;;;;;7360786;32;20244;-56
2024/01/01 12:27:01;;;;;;;8.10;1.27;;;8.40;99.90;;;;;;7361354;32;20205;-55
2024/01/01 12:31:03;;;;;;;9.77;1.65;;;8.50;99.90;;;;;;7363195;32;20610;-55
2024/01/01 12:35:05;;;;;;;9.73;1.83;;;8.50;99.90;;;;;;7361809;32;20145;-55
2024/01/01 12:39:07;;;;;;;14.18;1.70;;;8.40;99.90;;;;;;7358852;32;20312;-55
2024/01/01 12:43:09;;;;;;;9.85;1.52;;;8.50;99.90;;;;;;7362726;32;20103;-56
2024/01/01 12:47:11;;;;;;;16.05;2.35;;;8.60;99.90;;;;;;7361966;32;20588;-56
2024/01/01 12:51:17;;;;;;;9.57;1.65;;;8.50;99.90;;;;;;7369076;32;20171;-56
2024/01/01 12:55:19;;;;;;;11.30;2.30;;;8.50;99.90;;;;;;7356653;32;20548;-56
2024/01/01 12:59:21;;;;;;;9.73;1.90;;;8.50;99.90;;;;;;7368354;32;20127;-55
2024/01/01 13:03:22;;;;;;;9.50;1.80;;;8.50;99.90;;;;;;7361940;32;20254;-55
2024/01/01 13:07:24;;;;;;;12.48;1.85;;;8.50;99.90;;;;;;7367651;32;20318;-56
2024/01/01 13:11:26;;;;;;;13.57;2.00;;;8.60;99.90;;;;;;7365271;32;20161;-56
2024/01/01 13:15:29;;;;;;;11.95;1.80;;;8.60;99.90;;;;;;7364116;32;20648;-56
2024/01/01 13:19:34;;;;;;;11.27;2.33;;;8.50;99.90;;;;;;7364975;32;20103;-56
2024/01/01 13:23:37;;;;;;;14.05;2.62;;;8.60;99.90;;;;;;7371122;32;20152;-56
2024/01/01 13:27:39;;;;;;;15.82;2.45;;;8.70;99.90;;;;;;7353163;32;20528;-56
2024/01/01 13:31:41;;;;;;;13.68;2.53;;;8.70;99.90;;;;;;7357916;32;20118;-55
2024/01/01 13:35:43;;;;;;;10.60;2.62;;;8.60;99.90;;;;;;7361781;32;20095;-55
2024/01/01 13:39:45;;;;;;;11.80;2.25;;;8.60;99.90;;;;;;7363036;32;20107;-57
2024/01/01 13:43:47;;;;;;;12.25;2.05;;;8.60;99.90;;;;;;7359939;32;20160;-56
2024/01/01 13:47:49;;;;;;;11.88;2.12;;;8.60;99.90;;;;;;7361254;32;20103;-56
2024/01/01 13:51:51;;;;;;;9.10;1.98;;;8.50;99.90;;;;;;7364518;32;20138;-56
2024/01/01 13:55:54;;;;;;;15.95;2.47;;;8.60;99.90;;;;;;7349256;32;20160;-56
2024/01/01 13:59:56;;;;;;;19.52;2.25;;;8.60;99.90;;;;;;7359017;32;20581;-56
2024/01/01 14:03:57;;;;;;;16.50;2.05;;;8.60;99.90;;;;;;7360821;32;20151;-56
2024/01/01 14:07:59;;;;;;;13.65;2.08;;;8.50;99.90;;;;;;7362005;32;20501;-55
2024/01/01 14:12:03;;;;;;;13.57;2.62;;;8.60;99.90;;;;;;7343951;32;20246;-55
2024/01/01 14:16:05;;;;;;;15.13;2.30;;;8.60;99.90;;;;;;7357240;32;20273;-56
2024/01/01 14:20:09;;;;;;;14.48;2.53;;;8.60;99.90;;;;;;7354921;32;20261;-56
2024/01/01 14:24:11;;;;;;;17.37;2.33;;;8.50;99.90;;;;;;7356601;32;20224;-56
2024/01/01 14:28:13;;;;;;;12.73;2.25;;;8.40;99.90;;;;;;7362767;32;20515;-56
2024/01/01 14:32:15;;;;;;;14.75;2.05;;;8.40;99.90;;;;;;7359841;32;20855;-56
2024/01/01 14:36:16;;;;;;;19.37;2.78;;;8.30;99.90;;;;;;7362688;32;20494;-56
2024/01/01 14:40:18;;;;;;;17.67;2.50;;;8.30;99.90;;;;;;7361814;32;20471;-56
2024/01/01 14:44:21;;;;;;;18.20;2.67;;;8.20;99.90;;;;;;7359924;32;20739;-56
2024/01/01 14:48:23;;;;;;;13.80;2.37;;;8.20;99.90;;;;;;7362618;32;20131;-55
2024/01/01 14:52:25;;;;;;;15.60;2.15;;;8.10;99.90;;;;;;7358357;32;20209;-57
2024/01/01 14:56:27;;;;;;;13.13;2.95;;;8.10;99.90;;;;;;7357669;32;20154;-57
2024/01/01 15:00:29;;;;;;;18.67;2.62;;;8.10;99.90;;;;;;7363486;32;20444;-56
2024/01/01 15:04:32;;;;;;;15.85;3.28;;;8.10;99.90;;;;;;7364191;32;20107;-56
2024/01/01 15:08:35;;;;;;;14.15;1.95;;;8.10;99.90;;;;;;7361630;32;20172;-55
2024/01/01 15:12:36;;;;;;;13.02;2.47;;;8.10;99.90;;;;;;7368810;32;20494;-57
2024/01/01 15:16:40;;;;;;;13.02;2.53;;;8.00;99.90;;;;;;7358894;32;20199;-56
2024/01/01 15:20:42;;;;;;;20.50;3.35;;;8.10;99.90;;;;;;7367127;32;20103;-56
2024/01/01 15:24:43;;;;;;;18.00;2.58;;;8.10;99.90;;;;;;7361717;32;20116;-57
2024/01/01 15:28:45;;;;;;;10.73;2.95;;;8.10;99.90;;;;;;7360909;32;20206;-56
2024/01/01 15:32:47;;;;;;;17.92;2.35;;;8.10;99.90;;;;;;7360502;32;20154;-56
2024/01/01 15:36:49;;;;;;;9.02;2.37;;;8.10;99.90;;;;;;7362149;32;20446;-55
2024/01/01 15:40:51;;;;;;;12.30;2.08;;;8.10;99.90;;;;;;7364885;32;20767;-55
2024/01/01 15:44:52;;;;;;;16.62;2.72;;;8.00;99.90;;;;;;7360196;32;20125;-56
2024/01/01 15:48:56;;;;;;;13.38;2.42;;;8.00;99.90;;;;;;7356020;32;20139;-55
2024/01/01 15:52:58;;;;;;;15.32;2.20;;;8.20;99.90;;;;;;7360136;32;20467;-55
2024/01/01 15:57:00;;;;;;;23.60;4.43;;;8.00;99.90;;;;;;7353058;32;20482;-54
2024/01/01 16:01:02;;;;;;;15.07;3.37;;;7.90;99.90;;;;;;7365618;32;20114;-56
2024/01/01 16:05:05;;;;;;;13.43;2.55;;;7.80;99.90;;;;;;7360608;32;20131;-56
2024/01/01 16:09:07;;;;;;;16.87;3.00;;;7.70;99.90;;;;;;7360376;32;20224;-55
2024/01/01 16:13:09;;;;;;;15.95;2.60;;;7.60;99.90;;;;;;7360322;32;20517;-55
2024/01/01 16:17:10;;;;;;;12.73;2.70;;;7.60;99.90;;;;;;7354835;32;20234;-64
2024/01/01 16:21:12;;;;;;;12.18;2.37;;;7.80;99.90;;;;;;7355064;32;20251;-65
2024/01/01 16:25:15;;;;;;;13.77;2.20;;;7.90;99.90;;;;;;7365968;32;20264;-54
2024/01/01 16:29:17;;;;;;;13.98;2.28;;;7.80;99.90;;;;;;7360135;32;20135;-55
2024/01/01 16:33:19;;;;;;;16.37;2.47;;;7.70;99.90;;;;;;7359992;32;20153;-56
2024/01/01 16:37:21;;;;;;;12.85;2.28;;;7.70;99.90;;;;;;7358122;32;20196;-55
2024/01/01 16:41:23;;;;;;;12.75;2.10;;;7.60;99.90;;;;;;7361472;32;20337;-55
2024/01/01 16:45:25;;;;;;;15.63;2.28;;;7.60;99.90;;;;;;7365362;32;20727;-56
2024/01/01 16:49:27;;;;;;;16.27;2.03;;;7.40;99.90;;;;;;7368248;32;20473;-55
2024/01/01 16:53:29;;;;;;;15.93;2.67;;;7.50;99.90;;;;;;7359674;32;20182;-55
2024/01/01 16:57:31;;;;;;;13.70;2.00;;;7.40;99.90;;;;;;7364542;32;20130;-55
2024/01/01 17:01:33;;;;;;;10.23;2.05;;;7.40;99.90;;;;;;7352905;32;20302;-54
2024/01/01 17:05:35;;;;;;;15.73;2.47;;;7.40;99.90;;;;;;7349460;32;20319;-56
2024/01/01 17:09:37;;;;;;;12.50;2.15;;;7.40;99.90;;;;;;7356101;32;20726;-55
2024/01/01 17:13:43;;;;;;;16.58;2.37;;;7.40;99.90;;;;;;7369432;32;20170;-59
2024/01/01 17:17:45;;;;;;;11.43;2.10;;;7.30;99.90;;;;;;7366309;32;20527;-55
2024/01/01 17:21:46;;;;;;;11.80;2.25;;;7.30;99.90;;;;;;7363441;32;20102;-56
2024/01/01 17:25:48;;;;;;;14.00;2.25;;;7.40;99.90;;;;;;7350978;32;20302;-57
2024/01/01 17:29:50;;;;;;;14.40;2.30;;;7.40;99.90;;;;;;7346419;32;20157;-58
2024/01/01 17:33:52;;;;;;;16.87;2.37;;;7.40;99.90;;;;;;7345824;32;20138;-58
2024/01/01 17:37:54;;;;;;;9.40;2.03;;;7.40;99.90;;;;;;7355146;32;20114;-57
2024/01/01 17:41:56;;;;;;;15.68;2.50;;;7.30;99.90;;;;;;7353764;32;20227;-56
2024/01/01 17:45:57;;;;;;;15.70;2.05;;;7.30;99.90;;;;;;7353759;32;21057;-55
2024/01/01 17:49:59;;;;;;;12.48;2.70;;;7.30;99.90;;;;;;7358274;32;20276;-57
2024/01/01 17:54:02;;;;;;;17.40;3.17;;;7.30;99.90;;;;;;7356456;32;20214;-57
2024/01/01 17:58:04;;;;;;;12.88;2.20;;;7.30;99.90;;;;;;7359393;32;20138;-56
2024/01/01 18:02:06;;;;;;;19.35;2.50;;;7.30;99.90;;;;;;7359134;32;20281;-56
2024/01/01 18:06:08;;;;;;;18.48;2.92;;;7.40;99.90;;;;;;7362505;32;20449;-55
2024/01/01 18:10:12;;;;;;;14.48;2.45;;;7.40;99.90;;;;;;7361280;32;20494;-56
2024/01/01 18:14:13;;;;;;;14.27;2.62;;;7.50;99.90;;;;;;7366405;32;20143;-56
2024/01/01 18:18:15;;;;;;;10.38;2.35;;;7.50;99.90;;;;;;7359932;32;20445;-56
2024/01/01 18:22:17;;;;;;;13.30;2.30;;;7.50;99.90;;;;;;7360768;32;20827;-56
2024/01/01 18:26:19;;;;;;;14.52;2.33;;;7.60;99.90;;;;;;7360197;32;20159;-58
2024/01/01 18:30:20;;;;;;;15.90;2.58;;;7.60;99.90;;;;;;7363242;32;20135;-57
2024/01/01 18:34:23;;;;;;;14.55;2.97;;;7.60;99.90;;;;;;7353893;32;20484;-55
2024/01/01 18:38:25;;;;;;;13.75;2.37;;;7.70;99.90;;;;;;7357326;32;20099;-56
2024/01/01 18:42:27;;;;;;;10.10;2.10;;;7.60;99.90;;;;;;7364661;32;20152;-56
2024/01/01 18:46:28;;;;;;;13.95;2.47;;;7.60;99.90;;;;;;7362301;32;20206;-57
2024/01/01 18:50:30;;;;;;;13.55;2.20;;;7.70;99.90;;;;;;7352371;32;20099;-57
2024/01/01 18:54:32;;;;;;;19.45;3.08;;;7.70;99.90;;;;;;7340683;32;20161;-55
2024/01/01 18:58:35;;;;;;;12.02;1.90;;;7.60;99.90;;;;;;7337866;32;20237;-55
2024/01/01 19:02:37;;;;;;;17.33;2.35;;;7.60;99.90;;;;;;7347757;32;20134;-56
2024/01/01 19:06:39;;;;;;;12.40;2.35;;;7.60;99.90;;;;;;7345732;32;20129;-56
2024/01/01 19:10:41;;;;;;;19.33;2.22;;;7.70;99.90;;;;;;7355114;32;20123;-56
2024/01/01 19:14:42;;;;;;;13.52;2.00;;;7.60;99.90;;;;;;7352403;32;20127;-56
2024/01/01 19:18:47;;;;;;;12.43;2.00;;;7.60;99.90;;;;;;7347125;32;20205;-56
2024/01/01 19:22:49;;;;;;;9.68;2.15;;;7.60;99.90;;;;;;7350177;32;20122;-56
2024/01/01 19:26:51;;;;;;;13.10;1.65;;;7.70;99.90;;;;;;7358639;32;20525;-56
2024/01/01 19:30:53;;;;;;;10.30;1.70;;;7.60;99.90;;;;;;7348614;32;20142;-55
2024/01/01 19:34:55;;;;;;;12.52;1.87;;;7.50;99.90;;;;;;7331490;32;20139;-57
2024/01/01 19:38:57;;;;;;;11.90;1.90;;;7.60;99.90;;;;;;7354969;32;20269;-57
2024/01/01 19:42:58;;;;;;;12.57;2.58;;;7.60;99.90;;;;;;7354686;32;20123;-58
2024/01/01 19:47:00;;;;;;;9.25;2.25;;;7.60;99.90;;;;;;7360938;32;20163;-54
2024/01/01 19:51:04;;;;;;;8.20;1.70;;;7.60;99.90;;;;;;7356732;32;20132;-54
2024/01/01 19:55:06;;;;;;;8.85;1.83;;;7.60;99.90;;;;;;7340553;32;20177;-56
2024/01/01 19:59:08;;;;;;;12.30;1.95;;;7.60;99.90;;;;;;7338623;32;20451;-57
2024/01/01 20:03:10;;;;;;;11.27;1.50;;;7.60;99.90;;;;;;7331237;32;20118;-55
2024/01/01 20:07:12;;;;;;;6.55;1.48;;;7.60;99.90;;;;;;7352272;32;20123;-56
2024/01/01 20:11:22;;;;;;;10.73;1.87;;;7.60;99.90;;;;;;7346203;32;20115;-55
2024/01/01 20:15:24;;;;;;;9.20;1.52;;;7.60;99.90;;;;;;7355378;32;20126;-56
2024/01/01 20:19:26;;;;;;;9.05;1.90;;;7.60;99.90;;;;;;7350263;32;20213;-56
2024/01/01 20:23:28;;;;;;;13.15;1.98;;;7.60;99.90;;;;;;7350913;32;20111;-56
2024/01/01 20:27:30;;;;;;;11.77;2.25;;;7.60;99.90;;;;;;7358706;32;20257;-56
2024/01/01 20:31:32;;;;;;;11.80;2.05;;;7.80;99.90;;;;;;7339573;32;20807;-57
2024/01/01 20:35:33;;;;;;;10.63;1.90;;;7.70;99.90;;;;;;7344363;32;20212;-57
2024/01/01 20:39:36;;;;;;;11.38;2.50;;;7.60;99.90;;;;;;7359302;32;20102;-56
2024/01/01 20:43:38;;;;;;;10.82;1.75;;;7.60;99.90;;;;;;7359628;32;20600;-57
2024/01/01 20:47:39;;;;;;;8.90;2.22;;;7.60;99.90;;;;;;7363918;32;20142;-57
2024/01/01 20:51:41;;;;;;;18.00;1.85;;;7.60;99.90;;;;;;7360462;32;20173;-57
2024/01/01 20:55:43;;;;;;;10.80;1.60;;;7.60;99.90;;;;;;7363717;32;20336;-57
2024/01/01 20:59:45;;;;;;;10.70;2.22;;;7.60;99.90;;;;;;7362015;32;20122;-56
2024/01/01 21:03:47;;;;;;;12.45;2.12;;;7.50;99.90;;;;;;7363890;32;20231;-53
2024/01/01 21:07:49;;;;;;;15.55;2.60;;;7.50;99.90;;;;;;7365395;32;20111;-56